createdAt,value
2023-05-10T00:00:38.758Z,98146.09
2023-05-10T00:03:05.438Z,98144.53
2023-05-10T00:05:33.387Z,98137.09
2023-05-10T00:07:59.946Z,98147.25
2023-05-10T00:10:26.511Z,98147.25
2023-05-10T00:12:53.082Z,98147.25
2023-05-10T00:15:19.674Z,98149.56
2023-05-10T00:17:46.206Z,98144.47
2023-05-10T00:20:13.235Z,98140.16
2023-05-10T00:22:41.050Z,98143.66
2023-05-10T00:25:09.245Z,98139.72
2023-05-10T00:27:35.817Z,98146.78
2023-05-10T00:30:02.443Z,98138.19
2023-05-10T00:32:29.034Z,98140.13
2023-05-10T00:34:55.592Z,98133.50
2023-05-10T00:37:22.657Z,98135.06
2023-05-10T00:39:50.478Z,98127.63
2023-05-10T00:42:17.101Z,98130.75
2023-05-10T00:44:43.601Z,98131.94
2023-05-10T00:47:10.907Z,98126.81
2023-05-10T00:49:37.706Z,98135.41
2023-05-10T00:52:04.655Z,98131.84
2023-05-10T00:54:31.523Z,98134.97
2023-05-10T00:56:59.332Z,98131.41
2023-05-10T00:59:26.194Z,98131.41
2023-05-10T01:01:53.220Z,98131.78
2023-05-10T01:04:19.970Z,98129.81
2023-05-10T01:06:46.593Z,98127.44
2023-05-10T01:09:13.106Z,98124.28
2023-05-10T01:11:40.952Z,98126.97
2023-05-10T01:14:09.374Z,98118.38
2023-05-10T01:16:39.166Z,98124.63
2023-05-10T01:19:08.432Z,98117.53
2023-05-10T01:21:44.056Z,98121.03
2023-05-10T01:24:39.202Z,98120.66
2023-05-10T01:27:32.946Z,98114.38
2023-05-10T01:30:17.237Z,98121.41
2023-05-10T01:32:52.822Z,98116.69
2023-05-10T01:35:27.947Z,98121.00
2023-05-10T01:38:05.366Z,98121.38
2023-05-10T01:40:37.722Z,98120.97
2023-05-10T01:43:08.959Z,98113.91
2023-05-10T01:45:42.338Z,98111.16
2023-05-10T01:48:11.934Z,98110.75
2023-05-10T01:50:44.722Z,98102.16
2023-05-10T01:53:13.716Z,98103.72
2023-05-10T01:55:45.499Z,98103.31
2023-05-10T01:58:16.314Z,98112.69
2023-05-10T02:00:45.469Z,98108.00
2023-05-10T02:03:16.035Z,98107.56
2023-05-10T02:05:45.120Z,98106.38
2023-05-10T02:08:14.918Z,98106.00
2023-05-10T02:10:43.723Z,98115.72
2023-05-10T02:13:12.160Z,98110.25
2023-05-10T02:15:41.074Z,98114.56
2023-05-10T02:18:10.230Z,98110.66
2023-05-10T02:20:39.380Z,98119.25
2023-05-10T02:23:08.183Z,98121.22
2023-05-10T02:25:35.937Z,98120.03
2023-05-10T02:28:04.318Z,98120.41
2023-05-10T02:30:33.249Z,98131.66
2023-05-10T02:33:00.412Z,98135.06
2023-05-10T02:35:28.148Z,98132.94
2023-05-10T02:37:57.473Z,98134.81
2023-05-10T02:40:28.586Z,98135.16
2023-05-10T02:42:57.195Z,98133.09
2023-05-10T02:45:28.266Z,98140.47
2023-05-10T02:47:55.424Z,98143.91
2023-05-10T02:50:23.022Z,98146.56
2023-05-10T02:52:52.482Z,98151.16
2023-05-10T02:55:26.342Z,98155.00
2023-05-10T02:57:57.697Z,98149.84
2023-05-10T03:00:25.831Z,98150.19
2023-05-10T03:02:52.733Z,98151.00
2023-05-10T03:05:19.523Z,98151.69
2023-05-10T03:07:47.096Z,98157.47
2023-05-10T03:10:14.240Z,98157.84
2023-05-10T03:13:02.545Z,98161.28
2023-05-10T03:15:38.235Z,98156.50
2023-05-10T03:18:08.596Z,98160.38
2023-05-10T03:20:39.600Z,98165.00
2023-05-10T03:23:13.062Z,98164.59
2023-05-10T03:25:40.851Z,98167.97
2023-05-10T03:28:10.072Z,98173.41
2023-05-10T03:30:37.879Z,98172.91
2023-05-10T03:33:07.547Z,98190.03
2023-05-10T03:35:34.245Z,98180.94
2023-05-10T03:38:00.830Z,98188.38
2023-05-10T03:40:33.390Z,98186.25
2023-05-10T03:42:59.940Z,98187.38
2023-05-10T03:45:28.202Z,98188.84
2023-05-10T03:47:54.722Z,98195.81
2023-05-10T03:50:21.556Z,98207.13
2023-05-10T03:52:48.037Z,98200.88
2023-05-10T03:55:14.541Z,98203.94
2023-05-10T03:57:41.118Z,98208.25
2023-05-10T04:00:08.787Z,98203.53
2023-05-10T04:02:36.737Z,98203.44
2023-05-10T04:05:03.449Z,98211.63
2023-05-10T04:07:29.926Z,98213.94
2023-05-10T04:09:56.374Z,98210.44
2023-05-10T04:12:23.000Z,98219.69
2023-05-10T04:14:49.660Z,98213.78
2023-05-10T04:17:16.529Z,98213.00
2023-05-10T04:19:44.452Z,98219.53
2023-05-10T04:22:10.940Z,98215.31
2023-05-10T04:24:37.520Z,98221.13
2023-05-10T04:27:04.025Z,98220.69
2023-05-10T04:29:30.719Z,98224.66
2023-05-10T04:31:57.211Z,98218.75
2023-05-10T04:34:23.729Z,98216.13
2023-05-10T04:36:51.741Z,98220.38
2023-05-10T04:39:18.275Z,98220.78
2023-05-10T04:41:44.820Z,98224.66
2023-05-10T04:44:11.372Z,98229.75
2023-05-10T04:46:37.969Z,98232.88
2023-05-10T04:49:04.641Z,98232.88
2023-05-10T04:51:31.159Z,98235.22
2023-05-10T04:54:05.978Z,98237.84
2023-05-10T04:56:33.489Z,98242.66
2023-05-10T04:59:00.107Z,98246.97
2023-05-10T05:01:26.750Z,98251.13
2023-05-10T05:03:53.407Z,98251.19
2023-05-10T05:06:20.068Z,98259.09
2023-05-10T05:08:46.707Z,98260.34
2023-05-10T05:11:14.566Z,98267.72
2023-05-10T05:13:41.064Z,98273.19
2023-05-10T05:16:07.899Z,98277.13
2023-05-10T05:18:34.455Z,98274.75
2023-05-10T05:21:01.134Z,98278.34
2023-05-10T05:23:27.853Z,98280.00
2023-05-10T05:25:54.750Z,98281.94
2023-05-10T05:28:22.834Z,98282.00
2023-05-10T05:30:49.325Z,98287.88
2023-05-10T05:33:15.891Z,98282.44
2023-05-10T05:35:42.624Z,98289.13
2023-05-10T05:38:09.280Z,98294.63
2023-05-10T05:40:35.960Z,98295.50
2023-05-10T05:43:02.501Z,98294.34
2023-05-10T05:45:30.549Z,98311.16
2023-05-10T05:47:57.241Z,98304.97
2023-05-10T05:50:23.792Z,98305.31
2023-05-10T05:52:50.460Z,98303.78
2023-05-10T05:55:17.343Z,98314.31
2023-05-10T05:57:44.067Z,98310.38
2023-05-10T06:00:11.316Z,98313.91
2023-05-10T06:02:39.412Z,98322.09
2023-05-10T06:05:07.059Z,98322.50
2023-05-10T06:07:33.646Z,98323.44
2023-05-10T06:10:00.255Z,98327.81
2023-05-10T06:12:26.776Z,98324.28
2023-05-10T06:14:53.271Z,98336.06
2023-05-10T06:17:19.782Z,98340.38
2023-05-10T06:19:47.785Z,98329.66
2023-05-10T06:22:14.339Z,98330.94
2023-05-10T06:24:40.976Z,98335.03
2023-05-10T06:27:07.518Z,98342.91
2023-05-10T06:29:34.112Z,98355.34
2023-05-10T06:32:00.727Z,98356.66
2023-05-10T06:34:27.238Z,98348.34
2023-05-10T06:36:55.127Z,98354.59
2023-05-10T06:39:21.671Z,98361.63
2023-05-10T06:41:48.204Z,98357.91
2023-05-10T06:44:14.785Z,98359.94
2023-05-10T06:46:41.473Z,98368.69
2023-05-10T06:49:08.036Z,98354.09
2023-05-10T06:51:34.924Z,98364.13
2023-05-10T06:54:02.859Z,98365.19
2023-05-10T06:56:29.394Z,98362.75
2023-05-10T06:58:55.931Z,98361.66
2023-05-10T07:01:22.609Z,98368.00
2023-05-10T07:03:49.292Z,98377.97
2023-05-10T07:06:29.297Z,98377.56
2023-05-10T07:08:59.191Z,98381.69
2023-05-10T07:11:27.077Z,98384.69
2023-05-10T07:13:53.835Z,98383.53
2023-05-10T07:16:20.373Z,98389.28
2023-05-10T07:18:47.017Z,98384.53
2023-05-10T07:21:13.647Z,98390.63
2023-05-10T07:23:40.730Z,98382.03
2023-05-10T07:26:08.172Z,98386.31
2023-05-10T07:28:36.153Z,98390.25
2023-05-10T07:31:02.757Z,98396.97
2023-05-10T07:33:29.311Z,98398.53
2023-05-10T07:35:55.878Z,98405.16
2023-05-10T07:38:22.647Z,98408.56
2023-05-10T07:40:49.349Z,98409.88
2023-05-10T07:43:15.852Z,98409.38
2023-05-10T07:45:43.833Z,98412.06
2023-05-10T07:48:10.378Z,98416.13
2023-05-10T07:50:36.984Z,98416.84
2023-05-10T07:53:03.567Z,98425.91
2023-05-10T07:55:30.190Z,98425.75
2023-05-10T07:57:57.005Z,98424.59
2023-05-10T08:00:23.726Z,98423.22
2023-05-10T08:02:51.726Z,98426.69
2023-05-10T08:05:18.729Z,98424.56
2023-05-10T08:07:45.575Z,98428.88
2023-05-10T08:10:12.236Z,98418.50
2023-05-10T08:12:39.031Z,98426.06
2023-05-10T08:15:06.695Z,98434.44
2023-05-10T08:17:33.371Z,98425.75
2023-05-10T08:20:01.441Z,98429.03
2023-05-10T08:22:28.009Z,98432.50
2023-05-10T08:24:54.484Z,98426.75
2023-05-10T08:27:21.012Z,98431.19
2023-05-10T08:29:50.354Z,98437.06
2023-05-10T08:32:17.300Z,98428.06
2023-05-10T08:34:43.849Z,98443.22
2023-05-10T08:37:11.835Z,98431.78
2023-05-10T08:39:38.445Z,98437.38
2023-05-10T08:42:06.152Z,98439.72
2023-05-10T08:44:35.011Z,98437.13
2023-05-10T08:47:05.252Z,98444.19
2023-05-10T08:49:32.884Z,98447.09
2023-05-10T08:52:02.844Z,98447.28
2023-05-10T08:54:31.151Z,98449.66
2023-05-10T08:56:57.828Z,98449.94
2023-05-10T08:59:24.338Z,98447.38
2023-05-10T09:01:52.145Z,98451.78
2023-05-10T09:04:18.842Z,98452.94
2023-05-10T09:06:45.558Z,98458.78
2023-05-10T09:09:12.889Z,98450.09
2023-05-10T09:11:40.999Z,98458.41
2023-05-10T09:14:08.059Z,98449.44
2023-05-10T09:16:34.861Z,98455.75
2023-05-10T09:19:01.632Z,98462.38
2023-05-10T09:21:28.187Z,98461.56
2023-05-10T09:23:54.645Z,98453.53
2023-05-10T09:26:23.796Z,98457.56
2023-05-10T09:28:56.130Z,98461.69
2023-05-10T09:31:23.456Z,98464.13
2023-05-10T09:33:50.792Z,98459.22
2023-05-10T09:36:17.476Z,98468.00
2023-05-10T09:38:47.593Z,98457.09
2023-05-10T09:41:18.442Z,98462.84
2023-05-10T09:43:44.970Z,98461.50
2023-05-10T09:46:13.051Z,98460.91
2023-05-10T09:48:43.292Z,98466.19
2023-05-10T09:51:09.959Z,98463.59
2023-05-10T09:53:36.493Z,98469.91
2023-05-10T09:56:03.263Z,98458.09
2023-05-10T09:58:29.835Z,98456.06
2023-05-10T10:00:56.404Z,98455.28
2023-05-10T10:03:24.380Z,98455.13
2023-05-10T10:05:50.911Z,98461.38
2023-05-10T10:08:18.742Z,98460.59
2023-05-10T10:10:46.331Z,98466.06
2023-05-10T10:13:13.274Z,98463.47
2023-05-10T10:15:40.222Z,98456.06
2023-05-10T10:18:07.413Z,98464.47
2023-05-10T10:20:38.377Z,98460.50
2023-05-10T10:23:04.886Z,98473.00
2023-05-10T10:25:31.877Z,98475.28
2023-05-10T10:28:11.640Z,98455.50
2023-05-10T10:30:42.405Z,98455.06
2023-05-10T10:33:34.803Z,98457.69
2023-05-10T10:36:03.890Z,98458.53
2023-05-10T10:38:37.742Z,98467.13
2023-05-10T10:41:10.423Z,98459.69
2023-05-10T10:43:36.945Z,98470.81
2023-05-10T10:46:11.673Z,98469.44
2023-05-10T10:48:38.271Z,98461.69
2023-05-10T10:51:06.220Z,98468.34
2023-05-10T10:53:33.365Z,98466.91
2023-05-10T10:56:08.482Z,98463.59
2023-05-10T10:58:35.521Z,98484.91
2023-05-10T11:01:15.845Z,98460.84
2023-05-10T11:04:16.123Z,98473.91
2023-05-10T11:06:44.090Z,98474.25
2023-05-10T11:09:12.051Z,98483.66
2023-05-10T11:11:50.092Z,98489.72
2023-05-10T11:14:21.237Z,98483.81
2023-05-10T11:16:47.789Z,98490.91
2023-05-10T11:19:18.073Z,98500.94
2023-05-10T11:21:50.680Z,98498.97
2023-05-10T11:24:18.971Z,98488.81
2023-05-10T11:26:46.378Z,98488.84
2023-05-10T11:29:14.172Z,98497.66
2023-05-10T11:31:45.050Z,98501.69
2023-05-10T11:34:12.071Z,98500.56
2023-05-10T11:36:38.664Z,98502.56
2023-05-10T11:39:06.682Z,98503.72
2023-05-10T11:41:33.610Z,98512.66
2023-05-10T11:44:00.279Z,98510.84
2023-05-10T11:46:28.821Z,98506.78
2023-05-10T11:48:58.716Z,98489.47
2023-05-10T11:51:26.040Z,98495.66
2023-05-10T11:53:55.368Z,98494.34
2023-05-10T11:56:23.302Z,98520.19
2023-05-10T11:58:54.706Z,98554.44
2023-05-10T12:01:22.246Z,98560.16
2023-05-10T12:03:49.925Z,98555.19
2023-05-10T12:06:16.745Z,98547.53
2023-05-10T12:08:46.241Z,98552.50
2023-05-10T12:11:13.774Z,98551.44
2023-05-10T12:13:42.619Z,98541.47
2023-05-10T12:16:19.612Z,98555.47
2023-05-10T12:18:48.979Z,98557.34
2023-05-10T12:21:16.259Z,98556.69
2023-05-10T12:23:42.760Z,98564.03
2023-05-10T12:26:10.487Z,98556.81
2023-05-10T12:28:38.934Z,98555.94
2023-05-10T12:31:07.719Z,98552.78
2023-05-10T12:33:38.438Z,98558.47
2023-05-10T12:36:05.612Z,98557.47
2023-05-10T12:38:33.984Z,98558.72
2023-05-10T12:41:01.766Z,98569.72
2023-05-10T12:43:28.417Z,98556.53
2023-05-10T12:45:55.192Z,98557.00
2023-05-10T12:48:23.394Z,98561.31
2023-05-10T12:50:49.931Z,98554.25
2023-05-10T12:53:17.092Z,98559.34
2023-05-10T12:55:44.151Z,98552.72
2023-05-10T12:58:12.367Z,98557.38
2023-05-10T13:00:40.483Z,98544.72
2023-05-10T13:03:07.057Z,98543.63
2023-05-10T13:05:35.181Z,98541.25
2023-05-10T13:08:02.171Z,98553.09
2023-05-10T13:10:30.348Z,98544.50
2023-05-10T13:12:57.044Z,98548.84
2023-05-10T13:15:23.710Z,98549.97
2023-05-10T13:17:50.353Z,98552.34
2023-05-10T13:20:17.757Z,98549.25
2023-05-10T13:22:46.055Z,98548.53
2023-05-10T13:25:13.373Z,98551.25
2023-05-10T13:27:40.456Z,98556.00
2023-05-10T13:30:08.003Z,98553.63
2023-05-10T13:32:34.798Z,98558.75
2023-05-10T13:35:01.480Z,98566.63
2023-05-10T13:37:27.937Z,98565.81
2023-05-10T13:39:56.020Z,98566.97
2023-05-10T13:42:23.318Z,98584.13
2023-05-10T13:44:49.851Z,98576.81
2023-05-10T13:47:16.376Z,98579.91
2023-05-10T13:49:42.914Z,98581.31
2023-05-10T13:52:09.599Z,98579.22
2023-05-10T13:54:36.340Z,98581.81
2023-05-10T13:57:04.672Z,98582.97
2023-05-10T13:59:31.759Z,98574.31
2023-05-10T14:01:58.396Z,98572.31
2023-05-10T14:04:25.231Z,98565.78
2023-05-10T14:06:51.918Z,98572.06
2023-05-10T14:09:18.461Z,98573.72
2023-05-10T14:11:45.031Z,98583.13
2023-05-10T14:14:13.302Z,98596.97
2023-05-10T14:16:43.544Z,98594.84
2023-05-10T14:19:10.157Z,98608.66
2023-05-10T14:21:36.897Z,98608.78
2023-05-10T14:24:03.582Z,98606.91
2023-05-10T14:26:30.286Z,98601.88
2023-05-10T14:28:57.115Z,98606.03
2023-05-10T14:31:24.994Z,98596.31
2023-05-10T14:33:51.556Z,98603.38
2023-05-10T14:36:18.501Z,98603.09
2023-05-10T14:38:45.049Z,98620.31
2023-05-10T14:41:11.976Z,98604.69
2023-05-10T14:43:38.588Z,98609.81
2023-05-10T14:46:05.074Z,98610.88
2023-05-10T14:48:32.936Z,98611.09
2023-05-10T14:50:59.416Z,98608.69
2023-05-10T14:53:26.007Z,98612.59
2023-05-10T14:55:52.573Z,98607.75
2023-05-10T14:58:19.131Z,98610.13
2023-05-10T15:00:45.790Z,98606.13
2023-05-10T15:03:12.981Z,98609.25
2023-05-10T15:05:41.331Z,98608.81
2023-05-10T15:08:07.858Z,98610.31
2023-05-10T15:10:34.614Z,98604.13
2023-05-10T15:13:01.339Z,98606.53
2023-05-10T15:15:27.845Z,98616.06
2023-05-10T15:17:54.402Z,98611.78
2023-05-10T15:20:21.150Z,98618.50
2023-05-10T15:22:49.185Z,98616.69
2023-05-10T15:25:15.839Z,98611.56
2023-05-10T15:27:42.549Z,98605.97
2023-05-10T15:30:10.104Z,98603.72
2023-05-10T15:32:36.845Z,98608.91
2023-05-10T15:35:03.625Z,98608.53
2023-05-10T15:37:30.160Z,98611.63
2023-05-10T15:39:58.060Z,98628.88
2023-05-10T15:42:24.640Z,98619.69
2023-05-10T15:44:51.268Z,98626.03
2023-05-10T15:47:17.809Z,98625.34
2023-05-10T15:49:44.355Z,98621.25
2023-05-10T15:52:10.827Z,98626.81
2023-05-10T15:54:37.528Z,98626.88
2023-05-10T15:57:05.444Z,98629.28
2023-05-10T15:59:33.202Z,98638.03
2023-05-10T16:01:59.825Z,98638.09
2023-05-10T16:04:26.490Z,98640.47
2023-05-10T16:06:53.002Z,98639.25
2023-05-10T16:09:19.548Z,98644.25
2023-05-10T16:11:46.058Z,98654.28
2023-05-10T16:14:14.146Z,98651.03
2023-05-10T16:16:40.760Z,98647.59
2023-05-10T16:19:07.340Z,98652.34
2023-05-10T16:21:33.909Z,98651.28
2023-05-10T16:24:00.703Z,98652.44
2023-05-10T16:26:27.273Z,98658.66
2023-05-10T16:28:53.790Z,98656.28
2023-05-10T16:31:21.668Z,98654.28
2023-05-10T16:33:48.173Z,98649.13
2023-05-10T16:36:14.828Z,98652.66
2023-05-10T16:38:41.336Z,98659.38
2023-05-10T16:41:07.877Z,98651.13
2023-05-10T16:43:34.410Z,98658.63
2023-05-10T16:46:00.977Z,98660.19
2023-05-10T16:48:28.906Z,98656.19
2023-05-10T16:50:55.453Z,98653.50
2023-05-10T16:53:22.037Z,98663.59
2023-05-10T16:55:48.490Z,98653.06
2023-05-10T16:58:15.135Z,98660.94
2023-05-10T17:00:41.805Z,98659.34
2023-05-10T17:03:08.573Z,98667.25
2023-05-10T17:05:36.581Z,98665.34
2023-05-10T17:08:03.268Z,98663.31
2023-05-10T17:10:29.746Z,98663.25
2023-05-10T17:12:56.238Z,98656.88
2023-05-10T17:15:22.806Z,98665.78
2023-05-10T17:17:49.473Z,98660.16
2023-05-10T17:20:16.084Z,98654.50
2023-05-10T17:22:44.090Z,98665.38
2023-05-10T17:25:10.663Z,98671.63
2023-05-10T17:27:38.325Z,98668.13
2023-05-10T17:30:06.051Z,98670.81
2023-05-10T17:32:32.657Z,98669.66
2023-05-10T17:34:59.202Z,98678.91
2023-05-10T17:37:25.772Z,98674.75
2023-05-10T17:39:53.599Z,98671.94
2023-05-10T17:42:20.253Z,98678.56
2023-05-10T17:44:46.716Z,98684.84
2023-05-10T17:47:13.209Z,98683.66
2023-05-10T17:49:39.770Z,98688.56
2023-05-10T17:52:06.283Z,98692.09
2023-05-10T17:54:32.862Z,98694.31
2023-05-10T17:57:00.945Z,98697.16
2023-05-10T17:59:27.567Z,98699.88
2023-05-10T18:01:54.074Z,98706.06
2023-05-10T18:04:20.691Z,98704.00
2023-05-10T18:06:47.208Z,98703.94
2023-05-10T18:09:13.780Z,98700.19
2023-05-10T18:11:40.272Z,98697.84
2023-05-10T18:14:08.159Z,98699.78
2023-05-10T18:16:34.886Z,98703.38
2023-05-10T18:19:01.485Z,98700.13
2023-05-10T18:21:28.035Z,98708.28
2023-05-10T18:23:54.534Z,98707.84
2023-05-10T18:26:21.134Z,98706.97
2023-05-10T18:28:47.666Z,98711.19
2023-05-10T18:31:15.712Z,98715.84
2023-05-10T18:33:42.219Z,98715.78
2023-05-10T18:36:08.686Z,98712.91
2023-05-10T18:38:35.351Z,98724.47
2023-05-10T18:41:01.899Z,98724.84
2023-05-10T18:43:28.448Z,98729.34
2023-05-10T18:45:55.012Z,98719.84
2023-05-10T18:48:22.909Z,98729.94
2023-05-10T18:50:49.448Z,98724.72
2023-05-10T18:53:16.007Z,98718.47
2023-05-10T18:55:42.577Z,98721.19
2023-05-10T18:58:09.117Z,98722.00
2023-05-10T19:00:35.700Z,98719.59
2023-05-10T19:03:02.423Z,98722.63
2023-05-10T19:05:30.504Z,98726.06
2023-05-10T19:07:57.182Z,98723.66
2023-05-10T19:10:23.968Z,98726.31
2023-05-10T19:12:50.461Z,98728.63
2023-05-10T19:15:19.226Z,98729.75
2023-05-10T19:17:47.620Z,98730.13
2023-05-10T19:20:15.806Z,98730.75
2023-05-10T19:22:57.841Z,98731.03
2023-05-10T19:25:29.209Z,98733.78
2023-05-10T19:27:55.757Z,98728.13
2023-05-10T19:30:22.343Z,98735.91
2023-05-10T19:32:48.898Z,98735.44
2023-05-10T19:35:15.951Z,98738.53
2023-05-10T19:37:44.071Z,98740.81
2023-05-10T19:40:11.323Z,98744.19
2023-05-10T19:42:37.834Z,98743.56
2023-05-10T19:45:04.962Z,98745.84
2023-05-10T19:47:31.662Z,98744.72
2023-05-10T19:49:58.429Z,98752.28
2023-05-10T19:52:25.010Z,98751.75
2023-05-10T19:54:52.972Z,98751.22
2023-05-10T19:57:19.522Z,98748.41
2023-05-10T19:59:46.030Z,98755.47
2023-05-10T20:02:12.664Z,98751.03
2023-05-10T20:04:39.293Z,98750.34
2023-05-10T20:07:05.850Z,98751.94
2023-05-10T20:09:32.580Z,98751.13
2023-05-10T20:12:00.439Z,98752.63
2023-05-10T20:14:27.255Z,98753.31
2023-05-10T20:16:53.801Z,98761.44
2023-05-10T20:19:20.467Z,98761.31
2023-05-10T20:21:46.999Z,98757.69
2023-05-10T20:24:13.504Z,98757.16
2023-05-10T20:26:40.704Z,98766.03
2023-05-10T20:29:08.631Z,98769.50
2023-05-10T20:31:35.351Z,98760.59
2023-05-10T20:34:02.267Z,98763.31
2023-05-10T20:36:28.958Z,98766.03
2023-05-10T20:38:55.559Z,98760.97
2023-05-10T20:41:22.064Z,98769.16
2023-05-10T20:43:48.612Z,98763.69
2023-05-10T20:46:16.460Z,98761.31
2023-05-10T20:48:43.127Z,98767.56
2023-05-10T20:51:09.589Z,98758.91
2023-05-10T20:53:36.280Z,98767.34
2023-05-10T20:56:02.844Z,98761.88
2023-05-10T20:58:29.371Z,98756.06
2023-05-10T21:00:55.963Z,98766.19
2023-05-10T21:03:23.757Z,98764.25
2023-05-10T21:05:50.357Z,98759.53
2023-05-10T21:08:16.915Z,98757.47
2023-05-10T21:10:43.475Z,98764.75
2023-05-10T21:13:09.975Z,98758.78
2023-05-10T21:15:36.476Z,98757.00
2023-05-10T21:18:03.357Z,98754.50
2023-05-10T21:20:31.313Z,98760.84
2023-05-10T21:22:57.802Z,98764.53
2023-05-10T21:25:24.391Z,98751.13
2023-05-10T21:27:50.945Z,98757.28
2023-05-10T21:30:19.140Z,98757.19
2023-05-10T21:32:46.087Z,98764.00
2023-05-10T21:35:12.583Z,98754.94
2023-05-10T21:37:40.505Z,98762.06
2023-05-10T21:40:07.928Z,98762.66
2023-05-10T21:42:34.617Z,98760.53
2023-05-10T21:45:01.084Z,98760.41
2023-05-10T21:47:27.639Z,98757.13
2023-05-10T21:49:54.230Z,98757.81
2023-05-10T21:52:20.775Z,98760.84
2023-05-10T21:54:48.636Z,98756.56
2023-05-10T21:57:15.160Z,98760.75
2023-05-10T21:59:41.727Z,98750.19
2023-05-10T22:02:08.260Z,98751.22
2023-05-10T22:04:34.823Z,98751.44
2023-05-10T22:07:01.395Z,98747.47
2023-05-10T22:09:27.922Z,98745.78
2023-05-10T22:11:55.781Z,98743.72
2023-05-10T22:14:22.346Z,98745.19
2023-05-10T22:16:48.957Z,98743.84
2023-05-10T22:19:15.653Z,98746.91
2023-05-10T22:21:42.143Z,98743.63
2023-05-10T22:24:08.816Z,98741.47
2023-05-10T22:26:35.381Z,98742.34
2023-05-10T22:29:03.898Z,98749.47
2023-05-10T22:31:30.486Z,98748.91
2023-05-10T22:33:57.069Z,98749.16
2023-05-10T22:36:23.536Z,98755.13
2023-05-10T22:38:50.187Z,98755.31
2023-05-10T22:41:16.661Z,98750.88
2023-05-10T22:43:43.170Z,98752.53
2023-05-10T22:46:11.078Z,98754.69
2023-05-10T22:48:37.811Z,98746.72
2023-05-10T22:51:04.485Z,98753.97
2023-05-10T22:53:31.002Z,98759.28
2023-05-10T22:55:57.635Z,98755.66
2023-05-10T22:58:24.282Z,98760.63
2023-05-10T23:00:50.963Z,98759.84
2023-05-10T23:03:19.023Z,98764.47
2023-05-10T23:05:45.533Z,98763.69
2023-05-10T23:08:12.074Z,98761.63
2023-05-10T23:10:38.586Z,98758.78
2023-05-10T23:13:05.218Z,98757.50
2023-05-10T23:15:31.755Z,98767.91
2023-05-10T23:17:58.341Z,98765.88
2023-05-10T23:20:26.289Z,98767.00
2023-05-10T23:22:53.725Z,98769.38
2023-05-10T23:25:20.261Z,98769.84
2023-05-10T23:27:46.828Z,98774.03
2023-05-10T23:30:13.622Z,98776.28
2023-05-10T23:32:40.207Z,98768.47
2023-05-10T23:35:08.098Z,98766.88
2023-05-10T23:37:36.663Z,98769.91
2023-05-10T23:40:03.326Z,98763.22
2023-05-10T23:42:30.003Z,98764.69
2023-05-10T23:44:56.515Z,98768.38
2023-05-10T23:47:23.084Z,98765.19
2023-05-10T23:49:49.993Z,98767.47
2023-05-10T23:52:16.463Z,98775.97
2023-05-10T23:54:45.862Z,98767.81
2023-05-10T23:57:12.511Z,98773.56
2023-05-10T23:59:39.196Z,98772.78
